Maysville, Missouri
Current Conditions -  °F | °C
As of 1:53 PM on Friday 28 Nov 2014 (Local Time) from KSTJ Reporting Station
Clear Clear  
Wind Chill: 54°   Ceiling: Unl
Heat Index: 54°   Visibility: 10mi
Dew Point: 32°   Wind: 15mph
Humidity: 43%   Direction: 200°SSW
Pressure: 29.8"   Gusts: NA
Location:  39.89°N, 94.36°W
Report Text: KSTJ 281953Z 20013KT 10SM CLR 12/00 A2980 RMK AO2 SLP094 T01220000
Loading
Personal Weather Stations






























Interactive Weather Map New forecast layout! Learn more

10-Day Weather Forecast

Advertisements
Track Severe Weather on mobile